»·PEaware :: N16RD KVCV-KSNA

N16RD :: KVCV-KSNA

FLIGHT INFORMATION

Flight Status: Arrived
Operator: Privately registered:
United States
More flights under this callsign
Pilot: Brett B. (12105)
Aircraft: CESSNA 172 SKYHAWK
(C172)
More flights by this aircraft type
Origin: KVCV Socal Logistics
United States
Destination: KSNA John Wayne-Orange Co
United States
More flights between these airports :: More routes between these airports
Route:
File this flight plan on PilotEdge
Remarks:
Altitude:
(Current/Filed)
7,500ft
Speed:
(Current/Filed)
115kts
Departed: 22-Oct-20 01:54 PM
Arrived: 22-Oct-20 02:33 PM
Distance/Time
Traveled:
60nm/0:38
Distance/Time
To Go:
Arrived

Flight Plot

Page will automatically refresh every two minutes.


Map Options




Map Legend


Flown Route
Filed Route
Departure Airport
Arrival Airport
Navaid (VOR, NDB)
Fix

Horizontal Profiles

Position Reports

Time Latitude Longitude Heading Altitude Ground
Speed
22-Oct-20 13:41 34.588995 -117.375505 46 2867ft 0kts
22-Oct-20 13:42 34.588995 -117.375505 46 2867ft 0kts
22-Oct-20 13:43 34.588995 -117.375505 46 2867ft 0kts
22-Oct-20 13:45 34.588995 -117.375505 46 2867ft 0kts
22-Oct-20 13:46 34.588995 -117.375505 46 2867ft 0kts
22-Oct-20 13:47 34.588995 -117.375505 46 2867ft 0kts
22-Oct-20 13:48 34.591738 -117.373441 41 2862ft 19kts
22-Oct-20 13:49 34.592810 -117.368202 89 2858ft 13kts
22-Oct-20 13:50 34.597399 -117.366973 8 2851ft 26kts
22-Oct-20 13:51 34.599099 -117.366672 24 2849ft 0kts
22-Oct-20 13:52 34.599099 -117.366672 23 2849ft 0kts
22-Oct-20 13:53 34.599319 -117.368083 225 2852ft 39kts
22-Oct-20 13:54 34.586061 -117.381742 219 3178ft 70kts
22-Oct-20 13:55 34.567588 -117.395517 197 3618ft 88kts
22-Oct-20 13:56 34.542806 -117.403761 197 4127ft 95kts
22-Oct-20 13:57 34.516725 -117.410815 178 4628ft 98kts
22-Oct-20 13:58 34.489430 -117.408039 177 5129ft 98kts
22-Oct-20 13:59 34.462520 -117.405247 177 5629ft 95kts
22-Oct-20 14:00 34.436497 -117.402543 177 6129ft 92kts
22-Oct-20 14:00 34.415769 -117.400277 177 6539ft 87kts
22-Oct-20 14:02 34.386263 -117.396969 177 7003ft 94kts
22-Oct-20 14:02 34.364965 -117.401551 197 7335ft 94kts
22-Oct-20 14:04 34.333463 -117.412060 197 7555ft 113kts
22-Oct-20 14:04 34.307811 -117.420772 197 7558ft 111kts
22-Oct-20 14:05 34.278096 -117.430828 197 7561ft 110kts
22-Oct-20 14:06 34.248946 -117.441859 228 7558ft 109kts
22-Oct-20 14:07 34.222228 -117.446377 187 7505ft 112kts
22-Oct-20 14:08 34.196125 -117.467237 207 7048ft 123kts
22-Oct-20 14:09 34.161678 -117.468772 177 6360ft 126kts
22-Oct-20 14:10 34.126763 -117.470646 187 5667ft 126kts
22-Oct-20 14:11 34.094614 -117.474571 187 5504ft 107kts
22-Oct-20 14:12 34.065783 -117.477921 187 5500ft 102kts
22-Oct-20 14:13 34.037668 -117.481148 191 5502ft 102kts
22-Oct-20 14:14 34.010745 -117.490796 207 5498ft 100kts
22-Oct-20 14:15 33.984816 -117.505654 200 5500ft 114kts
22-Oct-20 14:16 33.952442 -117.516844 197 5500ft 123kts
22-Oct-20 14:17 33.919149 -117.528306 197 5497ft 125kts
22-Oct-20 14:18 33.889049 -117.547233 217 5499ft 123kts
22-Oct-20 14:19 33.861386 -117.571671 217 5500ft 123kts
22-Oct-20 14:20 33.833917 -117.595876 217 5543ft 120kts
22-Oct-20 14:21 33.806733 -117.619814 217 5555ft 120kts
22-Oct-20 14:22 33.779167 -117.644079 217 5557ft 123kts
22-Oct-20 14:23 33.786247 -117.673776 307 5556ft 98kts
22-Oct-20 14:24 33.806743 -117.704257 308 4543ft 131kts
22-Oct-20 14:25 33.829378 -117.738271 301 3622ft 121kts
22-Oct-20 14:26 33.815345 -117.768278 253 3274ft 120kts
22-Oct-20 14:27 33.791837 -117.795280 209 2433ft 116kts
22-Oct-20 14:28 33.764605 -117.812537 209 1866ft 109kts
22-Oct-20 14:29 33.737715 -117.829579 209 1284ft 108kts
22-Oct-20 14:30 33.710982 -117.846508 209 714ft 109kts
22-Oct-20 14:31 33.687796 -117.861000 208 201ft 80kts
22-Oct-20 14:32 33.674589 -117.869652 198 55ft 7kts
22-Oct-20 14:33 33.675060 -117.871206 308 53ft 17kts
22-Oct-20 14:34 33.674887 -117.872064 215 52ft 0kts
22-Oct-20 14:35 33.674887 -117.872064 215 52ft 0kts
22-Oct-20 14:36 33.674887 -117.872064 215 52ft 0kts
22-Oct-20 14:37 33.674887 -117.872064 215 52ft 0kts
22-Oct-20 14:38 33.674887 -117.872064 215 52ft 0kts
22-Oct-20 14:39 33.674887 -117.872064 215 52ft 0kts
22-Oct-20 14:40 33.674887 -117.872064 215 52ft 0kts
22-Oct-20 14:41 33.674887 -117.872064 215 52ft 0kts
22-Oct-20 14:42 33.674887 -117.872064 215 52ft 0kts
22-Oct-20 14:43 33.674887 -117.872064 215 52ft 0kts
22-Oct-20 14:44 33.674887 -117.872064 215 52ft 0kts
22-Oct-20 14:45 33.674887 -117.872064 215 52ft 0kts
22-Oct-20 14:46 33.674887 -117.872064 215 52ft 0kts

Navigation Log

Ident Type
Flight plan parsing failed, navigation log unavailable